createdAt,value
2022-12-22T00:00:57.415Z,11.43
2022-12-22T00:03:31.286Z,10.43
2022-12-22T00:06:00.667Z,12.80
2022-12-22T00:08:30.308Z,13.57
2022-12-22T00:10:58.650Z,32.58
2022-12-22T00:13:26.067Z,16.88
2022-12-22T00:15:53.547Z,11.65
2022-12-22T00:18:21.168Z,11.30
2022-12-22T00:20:50.488Z,11.13
2022-12-22T00:23:18.009Z,13.38
2022-12-22T00:25:45.895Z,11.15
2022-12-22T00:28:15.157Z,13.95
2022-12-22T00:30:45.323Z,15.57
2022-12-22T00:33:14.894Z,17.00
2022-12-22T00:35:42.185Z,17.08
2022-12-22T00:38:21.416Z,15.35
2022-12-22T00:40:50.782Z,14.82
2022-12-22T00:43:18.590Z,11.75
2022-12-22T00:45:45.772Z,10.18
2022-12-22T00:48:25.157Z,10.15
2022-12-22T00:50:52.517Z,11.43
2022-12-22T00:53:20.353Z,13.55
2022-12-22T00:55:50.053Z,11.55
2022-12-22T00:58:20.443Z,13.20
2022-12-22T01:00:47.524Z,12.38
2022-12-22T01:03:19.419Z,13.60
2022-12-22T01:05:47.427Z,12.95
2022-12-22T01:08:14.864Z,13.02
2022-12-22T01:10:44.211Z,17.77
2022-12-22T01:13:16.020Z,18.67
2022-12-22T01:15:43.256Z,17.70
2022-12-22T01:18:10.652Z,15.98
2022-12-22T01:20:40.310Z,14.35
2022-12-22T01:23:11.432Z,6.82
2022-12-22T01:25:40.899Z,7.65
2022-12-22T01:28:17.857Z,8.32
2022-12-22T01:30:47.795Z,7.80
2022-12-22T01:33:15.230Z,7.25
2022-12-22T01:35:44.688Z,6.78
2022-12-22T01:38:14.806Z,7.78
2022-12-22T01:40:41.962Z,7.60
2022-12-22T01:43:21.462Z,6.82
2022-12-22T01:45:53.446Z,8.93
2022-12-22T01:48:27.747Z,8.73
2022-12-22T01:50:55.017Z,7.38
2022-12-22T01:53:27.092Z,9.23
2022-12-22T01:55:54.595Z,8.75
2022-12-22T01:58:32.336Z,8.52
2022-12-22T02:00:59.545Z,10.50
2022-12-22T02:03:29.486Z,8.98
2022-12-22T02:06:11.712Z,10.73
2022-12-22T02:08:42.854Z,8.65
2022-12-22T02:11:19.363Z,9.57
2022-12-22T02:14:08.493Z,9.30
2022-12-22T02:16:47.080Z,7.88
2022-12-22T02:19:33.412Z,8.32
2022-12-22T02:22:09.343Z,8.90
2022-12-22T02:24:42.078Z,9.15
2022-12-22T02:27:10.534Z,9.25
2022-12-22T02:29:46.703Z,10.35
2022-12-22T02:32:14.314Z,10.82
2022-12-22T02:34:41.864Z,10.43
2022-12-22T02:37:39.533Z,10.55
2022-12-22T02:40:35.715Z,9.25
2022-12-22T02:43:42.709Z,10.15
2022-12-22T02:46:15.009Z,10.75
2022-12-22T02:48:57.242Z,9.43
2022-12-22T02:51:28.622Z,9.13
2022-12-22T02:53:58.084Z,10.57
2022-12-22T02:56:25.977Z,9.00
2022-12-22T02:58:53.798Z,10.85
2022-12-22T03:03:58.291Z,9.18
2022-12-22T03:06:25.932Z,7.95
2022-12-22T03:08:53.010Z,8.52
2022-12-22T03:11:23.570Z,9.98
2022-12-22T03:13:50.860Z,8.80
2022-12-22T03:16:18.362Z,8.55
2022-12-22T03:18:45.863Z,10.57
2022-12-22T03:21:13.346Z,9.20
2022-12-22T03:23:40.803Z,8.77
2022-12-22T03:26:08.537Z,10.70
2022-12-22T03:28:35.673Z,12.20
2022-12-22T03:31:05.809Z,13.57
2022-12-22T03:33:33.618Z,9.55
2022-12-22T03:36:01.411Z,10.15
2022-12-22T03:38:30.761Z,10.43
2022-12-22T03:40:58.687Z,10.30
2022-12-22T03:43:30.592Z,9.07
2022-12-22T03:45:58.187Z,10.13
2022-12-22T03:48:25.741Z,10.65
2022-12-22T03:50:53.153Z,9.95
2022-12-22T03:53:20.224Z,11.70
2022-12-22T03:55:47.891Z,10.57
2022-12-22T03:58:14.958Z,15.82
2022-12-22T04:00:42.423Z,12.38
2022-12-22T04:03:09.795Z,14.63
2022-12-22T04:05:39.946Z,11.95
2022-12-22T04:08:07.174Z,14.65
2022-12-22T04:10:37.243Z,12.35
2022-12-22T04:13:04.305Z,15.32
2022-12-22T04:15:34.112Z,18.15
2022-12-22T04:18:01.753Z,17.40
2022-12-22T04:20:29.191Z,17.20
2022-12-22T04:22:56.899Z,21.27
2022-12-22T04:25:25.543Z,17.80
2022-12-22T04:27:57.242Z,17.75
2022-12-22T04:30:24.741Z,18.80
2022-12-22T04:32:54.447Z,17.77
2022-12-22T04:35:21.807Z,20.48
2022-12-22T04:37:48.919Z,17.80
2022-12-22T04:40:18.874Z,17.13
2022-12-22T04:42:48.205Z,19.83
2022-12-22T04:45:15.790Z,17.85
2022-12-22T04:47:47.484Z,17.25
2022-12-22T04:50:14.873Z,16.25
2022-12-22T04:52:42.141Z,19.58
2022-12-22T04:55:12.245Z,18.80
2022-12-22T04:57:41.000Z,19.63
2022-12-22T05:00:09.725Z,17.80
2022-12-22T05:02:37.335Z,19.88
2022-12-22T05:05:09.986Z,17.05
2022-12-22T05:07:37.280Z,15.75
2022-12-22T05:10:08.067Z,16.00
2022-12-22T05:12:35.190Z,18.88
2022-12-22T05:15:05.200Z,17.83
2022-12-22T05:17:35.231Z,21.40
2022-12-22T05:20:02.794Z,24.23
2022-12-22T05:22:29.843Z,18.02
2022-12-22T05:24:57.578Z,19.45
2022-12-22T05:27:24.652Z,18.95
2022-12-22T05:29:52.019Z,16.70
2022-12-22T05:32:21.796Z,18.10
2022-12-22T05:34:51.652Z,18.17
2022-12-22T05:37:18.683Z,17.90
2022-12-22T05:39:46.345Z,17.88
2022-12-22T05:42:13.359Z,16.92
2022-12-22T05:44:40.715Z,21.50
2022-12-22T05:47:08.138Z,21.90
2022-12-22T05:49:35.536Z,20.75
2022-12-22T05:52:02.559Z,20.83
2022-12-22T05:54:30.078Z,22.48
2022-12-22T05:56:57.136Z,23.95
2022-12-22T05:59:24.471Z,19.10
2022-12-22T06:01:54.137Z,19.60
2022-12-22T06:04:21.582Z,21.05
2022-12-22T06:06:48.746Z,18.23
2022-12-22T06:09:16.307Z,20.27
2022-12-22T06:11:47.786Z,21.75
2022-12-22T06:14:15.162Z,20.05
2022-12-22T06:16:44.564Z,19.25
2022-12-22T06:19:11.907Z,16.45
2022-12-22T06:21:39.021Z,17.50
2022-12-22T06:24:07.185Z,17.20
2022-12-22T06:26:34.278Z,14.30
2022-12-22T06:29:01.629Z,20.73
2022-12-22T06:31:28.937Z,18.60
2022-12-22T06:33:58.754Z,19.38
2022-12-22T06:36:25.838Z,24.05
2022-12-22T06:38:55.723Z,22.80
2022-12-22T06:41:22.863Z,19.77
2022-12-22T06:43:50.215Z,19.90
2022-12-22T06:46:17.594Z,23.85
2022-12-22T06:48:45.098Z,26.48
2022-12-22T06:51:14.715Z,21.52
2022-12-22T06:53:45.021Z,21.52
2022-12-22T06:56:12.090Z,21.52
2022-12-22T06:58:44.139Z,21.65
2022-12-22T07:01:12.150Z,22.10
2022-12-22T07:03:39.820Z,27.08
2022-12-22T07:06:07.340Z,31.08
2022-12-22T07:08:37.668Z,34.63
2022-12-22T07:11:05.726Z,33.53
2022-12-22T07:13:35.627Z,39.22
2022-12-22T07:16:07.737Z,34.67
2022-12-22T07:18:40.215Z,30.63
2022-12-22T07:21:11.690Z,29.20
2022-12-22T07:23:41.761Z,27.67
2022-12-22T07:26:12.533Z,23.10
2022-12-22T07:28:41.814Z,23.77
2022-12-22T07:31:10.291Z,23.88
2022-12-22T07:33:38.452Z,17.80
2022-12-22T07:36:08.552Z,16.88
2022-12-22T07:38:39.077Z,20.05
2022-12-22T07:41:10.195Z,23.77
2022-12-22T07:43:37.871Z,19.88
2022-12-22T07:46:08.663Z,19.13
2022-12-22T07:48:36.274Z,18.92
2022-12-22T07:51:05.752Z,17.67
2022-12-22T07:53:35.442Z,19.05
2022-12-22T07:56:04.711Z,19.73
2022-12-22T07:58:34.354Z,18.23
2022-12-22T08:01:03.950Z,17.58
2022-12-22T08:03:31.440Z,19.45
2022-12-22T08:05:58.480Z,18.13
2022-12-22T08:08:25.851Z,15.35
2022-12-22T08:10:53.245Z,15.32
2022-12-22T08:13:20.631Z,12.85
2022-12-22T08:15:47.847Z,15.70
2022-12-22T08:18:17.819Z,14.07
2022-12-22T08:20:54.199Z,18.23
2022-12-22T08:23:21.806Z,17.42
2022-12-22T08:26:10.562Z,21.02
2022-12-22T08:28:44.626Z,19.42
2022-12-22T08:31:11.945Z,18.70
2022-12-22T08:33:42.044Z,13.30
2022-12-22T08:36:10.259Z,14.13
2022-12-22T08:38:41.211Z,13.98
2022-12-22T08:41:16.347Z,12.52
2022-12-22T08:43:46.181Z,12.18
2022-12-22T08:46:17.952Z,12.13
2022-12-22T08:48:47.800Z,14.40
2022-12-22T08:51:14.945Z,14.27
2022-12-22T08:56:30.700Z,13.07
2022-12-22T08:58:58.235Z,12.90
2022-12-22T09:01:25.357Z,11.48
2022-12-22T09:03:54.197Z,13.15
2022-12-22T09:06:27.292Z,13.13
2022-12-22T09:09:03.682Z,10.82
2022-12-22T09:11:31.391Z,15.05
2022-12-22T09:14:01.082Z,13.52
2022-12-22T09:16:31.087Z,10.35
2022-12-22T09:18:58.927Z,10.02
2022-12-22T09:21:29.190Z,9.60
2022-12-22T09:23:57.301Z,13.35
2022-12-22T09:26:26.746Z,12.27
2022-12-22T09:28:55.777Z,12.60
2022-12-22T09:31:26.753Z,14.75
2022-12-22T09:33:56.714Z,12.45
2022-12-22T09:36:29.837Z,11.57
2022-12-22T09:38:57.634Z,12.18
2022-12-22T09:41:30.402Z,12.05
2022-12-22T09:44:02.217Z,11.55
2022-12-22T09:46:32.856Z,9.90
2022-12-22T09:49:04.793Z,9.65
2022-12-22T09:51:34.363Z,13.13
2022-12-22T09:54:04.393Z,12.23
2022-12-22T09:56:34.131Z,11.82
2022-12-22T09:59:01.584Z,11.63
2022-12-22T10:01:52.164Z,12.88
2022-12-22T10:04:31.344Z,14.20
2022-12-22T10:07:32.356Z,14.00
2022-12-22T10:10:24.150Z,11.55
2022-12-22T10:12:53.966Z,11.45
2022-12-22T10:15:22.160Z,9.48
2022-12-22T10:18:09.020Z,6.95
2022-12-22T10:20:37.119Z,6.95
2022-12-22T10:23:18.272Z,5.88
2022-12-22T10:28:59.710Z,9.77
2022-12-22T10:31:34.197Z,10.93
2022-12-22T10:34:13.839Z,9.30
2022-12-22T10:36:47.120Z,11.20
2022-12-22T10:39:25.112Z,10.23
2022-12-22T10:41:56.871Z,8.30
2022-12-22T10:44:30.524Z,8.18
2022-12-22T10:47:17.172Z,6.22
2022-12-22T10:49:47.279Z,7.60
2022-12-22T10:52:16.020Z,6.20
2022-12-22T10:54:44.753Z,7.82
2022-12-22T10:57:15.063Z,8.73
2022-12-22T11:00:01.152Z,8.73
2022-12-22T11:02:29.288Z,8.93
2022-12-22T11:05:16.948Z,9.98
2022-12-22T11:07:46.218Z,9.63
2022-12-22T11:10:49.500Z,12.02
2022-12-22T11:13:34.992Z,9.73
2022-12-22T11:16:32.756Z,10.48
2022-12-22T11:19:43.097Z,9.43
2022-12-22T11:22:28.643Z,9.07
2022-12-22T11:25:21.254Z,9.50
2022-12-22T11:28:09.556Z,8.75
2022-12-22T11:30:50.158Z,10.48
2022-12-22T11:33:35.377Z,11.10
2022-12-22T11:36:15.464Z,8.43
2022-12-22T11:38:54.603Z,10.38
2022-12-22T11:41:24.813Z,10.20
2022-12-22T11:43:59.010Z,9.30
2022-12-22T11:46:40.747Z,10.07
2022-12-22T11:49:29.580Z,11.63
2022-12-22T11:52:48.040Z,10.32
2022-12-22T11:55:25.151Z,10.27
2022-12-22T11:58:11.035Z,10.88
2022-12-22T12:01:14.130Z,9.93
2022-12-22T12:03:51.421Z,14.98
2022-12-22T12:06:27.726Z,10.23
2022-12-22T12:09:06.946Z,9.85
2022-12-22T12:11:49.193Z,8.95
2022-12-22T12:14:25.591Z,9.07
2022-12-22T12:16:59.438Z,7.95
2022-12-22T12:19:38.979Z,8.50
2022-12-22T12:22:14.633Z,8.45
2022-12-22T12:24:59.395Z,8.25
2022-12-22T12:27:52.747Z,7.95
2022-12-22T12:30:39.612Z,7.83
2022-12-22T12:33:19.452Z,8.65
2022-12-22T12:35:53.166Z,8.43
2022-12-22T12:39:05.575Z,8.18
2022-12-22T12:41:45.850Z,7.47
2022-12-22T12:44:18.881Z,7.07
2022-12-22T12:46:57.658Z,9.98
2022-12-22T12:49:37.080Z,9.57
2022-12-22T12:52:07.911Z,10.07
2022-12-22T12:54:41.354Z,8.70
2022-12-22T12:57:22.439Z,10.40
2022-12-22T12:59:51.582Z,10.68
2022-12-22T13:02:28.996Z,9.43
2022-12-22T13:05:01.278Z,8.63
2022-12-22T13:08:05.946Z,9.95
2022-12-22T13:10:53.406Z,12.02
2022-12-22T13:13:24.293Z,9.68
2022-12-22T13:16:01.146Z,12.60
2022-12-22T13:18:34.745Z,9.15
2022-12-22T13:21:51.734Z,9.40
2022-12-22T13:24:28.660Z,7.95
2022-12-22T13:27:03.495Z,8.32
2022-12-22T13:29:42.591Z,10.32
2022-12-22T13:32:34.368Z,9.93
2022-12-22T13:35:32.615Z,11.80
2022-12-22T13:38:03.758Z,12.35
2022-12-22T13:40:44.239Z,9.48
2022-12-22T13:43:16.418Z,9.63
2022-12-22T13:45:43.969Z,9.07
2022-12-22T13:48:44.513Z,11.07
2022-12-22T13:51:35.854Z,11.20
2022-12-22T13:54:10.915Z,10.82
2022-12-22T13:56:51.422Z,11.38
2022-12-22T13:59:34.501Z,13.25
2022-12-22T14:02:08.604Z,13.55
2022-12-22T14:04:38.252Z,12.32
2022-12-22T14:07:20.781Z,12.88
2022-12-22T14:09:56.672Z,14.30
2022-12-22T14:12:27.012Z,14.57
2022-12-22T14:14:58.666Z,11.85
2022-12-22T14:17:34.358Z,11.52
2022-12-22T14:22:43.151Z,10.90
2022-12-22T14:25:27.536Z,13.77
2022-12-22T14:27:58.911Z,13.23
2022-12-22T14:30:42.122Z,15.00
2022-12-22T14:33:28.869Z,12.63
2022-12-22T14:36:05.599Z,15.10
2022-12-22T14:38:49.566Z,16.88
2022-12-22T14:41:22.559Z,15.50
2022-12-22T14:43:50.193Z,14.27
2022-12-22T14:46:18.742Z,16.73
2022-12-22T14:48:47.215Z,16.00
2022-12-22T14:51:19.715Z,17.80
2022-12-22T14:54:00.626Z,19.00
2022-12-22T14:56:30.426Z,18.67
2022-12-22T14:59:21.891Z,18.40
2022-12-22T15:02:23.424Z,15.73
2022-12-22T15:05:07.491Z,16.73
2022-12-22T15:08:09.805Z,18.80
2022-12-22T15:10:41.330Z,17.65
2022-12-22T15:13:17.379Z,17.77
2022-12-22T15:15:44.759Z,16.40
2022-12-22T15:18:15.100Z,15.63
2022-12-22T15:20:42.767Z,13.18
2022-12-22T15:23:15.315Z,14.60
2022-12-22T15:25:45.281Z,13.88
2022-12-22T15:28:12.406Z,14.50
2022-12-22T15:30:40.248Z,18.05
2022-12-22T15:33:16.110Z,13.55
2022-12-22T15:35:44.732Z,14.23
2022-12-22T15:38:21.025Z,20.77
2022-12-22T15:40:54.394Z,15.65
2022-12-22T15:46:14.846Z,16.95
2022-12-22T15:48:45.006Z,14.82
2022-12-22T15:51:22.544Z,16.80
2022-12-22T15:53:50.478Z,15.63
2022-12-22T15:56:23.927Z,15.95
2022-12-22T15:58:54.792Z,14.00
2022-12-22T16:01:22.541Z,10.43
2022-12-22T16:03:49.688Z,12.15
2022-12-22T16:06:19.280Z,13.25
2022-12-22T16:08:52.221Z,13.90
2022-12-22T16:11:20.629Z,12.75
2022-12-22T16:13:51.268Z,14.68
2022-12-22T16:16:21.591Z,12.18
2022-12-22T16:18:48.897Z,14.48
2022-12-22T16:21:22.855Z,11.23
2022-12-22T16:26:20.811Z,12.32
2022-12-22T16:28:48.676Z,11.10
2022-12-22T16:31:20.337Z,10.68
2022-12-22T16:33:47.518Z,11.82
2022-12-22T16:36:15.291Z,13.68
2022-12-22T16:38:44.963Z,15.27
2022-12-22T16:41:24.425Z,13.98
2022-12-22T16:46:39.475Z,15.07
2022-12-22T16:49:09.518Z,15.52
2022-12-22T16:51:43.048Z,15.48
2022-12-22T16:54:13.887Z,15.80
2022-12-22T16:56:41.681Z,17.08
2022-12-22T16:59:09.304Z,13.90
2022-12-22T17:01:59.435Z,14.88
2022-12-22T17:04:31.731Z,16.48
2022-12-22T17:07:02.783Z,16.15
2022-12-22T17:09:53.897Z,16.13
2022-12-22T17:12:27.084Z,14.88
2022-12-22T17:14:57.110Z,16.55
2022-12-22T17:17:31.882Z,14.63
2022-12-22T17:20:01.394Z,14.35
2022-12-22T17:22:32.312Z,14.48
2022-12-22T17:25:05.377Z,12.80
2022-12-22T17:27:34.292Z,13.25
2022-12-22T17:30:03.565Z,13.73
2022-12-22T17:32:31.155Z,14.55
2022-12-22T17:35:00.813Z,14.95
2022-12-22T17:37:33.578Z,15.00
2022-12-22T17:40:02.028Z,13.27
2022-12-22T17:42:31.868Z,16.27
2022-12-22T17:45:01.487Z,14.20
2022-12-22T17:47:34.681Z,15.43
2022-12-22T17:50:07.235Z,14.55
2022-12-22T17:52:34.818Z,15.30
2022-12-22T17:55:01.940Z,15.05
2022-12-22T17:57:33.517Z,14.25
2022-12-22T18:00:03.779Z,11.63
2022-12-22T18:02:31.589Z,12.40
2022-12-22T18:04:59.119Z,11.55
2022-12-22T18:07:26.563Z,13.65
2022-12-22T18:09:59.595Z,10.85
2022-12-22T18:12:29.531Z,13.90
2022-12-22T18:14:56.979Z,13.75
2022-12-22T18:17:26.276Z,11.73
2022-12-22T18:19:57.858Z,11.38
2022-12-22T18:22:36.139Z,12.35
2022-12-22T18:25:05.937Z,16.95
2022-12-22T18:27:33.555Z,14.05
2022-12-22T18:30:00.665Z,14.15
2022-12-22T18:32:28.348Z,11.50
2022-12-22T18:34:55.915Z,15.35
2022-12-22T18:37:23.335Z,11.70
2022-12-22T18:39:50.598Z,12.43
2022-12-22T18:42:23.458Z,9.63
2022-12-22T18:44:51.579Z,10.48
2022-12-22T18:47:21.559Z,8.55
2022-12-22T18:49:48.696Z,13.18
2022-12-22T18:52:22.227Z,9.50
2022-12-22T18:54:49.666Z,8.45
2022-12-22T18:57:19.810Z,8.98
2022-12-22T18:59:47.111Z,8.63
2022-12-22T19:02:29.600Z,9.45
2022-12-22T19:04:59.572Z,12.05
2022-12-22T19:07:27.262Z,11.75
2022-12-22T19:09:54.482Z,10.73
2022-12-22T19:12:23.096Z,10.23
2022-12-22T19:14:54.207Z,9.10
2022-12-22T19:17:25.504Z,8.85
2022-12-22T19:19:56.016Z,8.88
2022-12-22T19:22:27.507Z,8.55
2022-12-22T19:25:02.482Z,10.75
2022-12-22T19:27:32.377Z,8.48
2022-12-22T19:30:04.169Z,7.80
2022-12-22T19:32:40.337Z,7.50
2022-12-22T19:35:15.944Z,10.95
2022-12-22T19:37:48.050Z,9.48
2022-12-22T19:40:17.879Z,8.55
2022-12-22T19:42:47.818Z,9.55
2022-12-22T19:45:33.509Z,9.73
2022-12-22T19:48:02.828Z,10.73
2022-12-22T19:50:32.634Z,12.07
2022-12-22T19:53:13.425Z,11.07
2022-12-22T19:55:45.928Z,10.43
2022-12-22T19:58:18.569Z,11.02
2022-12-22T20:00:49.952Z,10.47
2022-12-22T20:03:26.032Z,11.65
2022-12-22T20:05:53.480Z,10.70
2022-12-22T20:08:23.516Z,13.93
2022-12-22T20:10:58.372Z,10.18
2022-12-22T20:13:32.638Z,11.68
2022-12-22T20:15:59.978Z,12.43
2022-12-22T20:18:28.538Z,12.77
2022-12-22T20:21:14.927Z,13.70
2022-12-22T20:23:44.883Z,11.48
2022-12-22T20:26:20.265Z,10.32
2022-12-22T20:28:48.119Z,8.30
2022-12-22T20:31:16.963Z,9.77
2022-12-22T20:33:45.096Z,9.55
2022-12-22T20:36:28.285Z,9.00
2022-12-22T20:38:57.107Z,9.68
2022-12-22T20:41:25.511Z,8.43
2022-12-22T20:43:52.913Z,18.67
2022-12-22T20:46:31.283Z,10.02
2022-12-22T20:49:02.241Z,8.85
2022-12-22T20:51:32.197Z,8.43
2022-12-22T20:54:02.848Z,8.93
2022-12-22T20:56:32.556Z,8.30
2022-12-22T20:59:06.979Z,7.80
2022-12-22T21:01:35.950Z,8.95
2022-12-22T21:04:08.172Z,8.43
2022-12-22T21:06:44.526Z,7.63
2022-12-22T21:09:15.155Z,7.90
2022-12-22T21:11:42.312Z,8.82
2022-12-22T21:14:10.463Z,6.85
2022-12-22T21:16:49.050Z,6.15
2022-12-22T21:19:21.211Z,9.07
2022-12-22T21:21:51.540Z,9.63
2022-12-22T21:24:22.972Z,8.25
2022-12-22T21:26:53.757Z,8.70
2022-12-22T21:29:24.633Z,6.80
2022-12-22T21:31:56.787Z,6.60
2022-12-22T21:37:18.607Z,8.23
2022-12-22T21:39:52.257Z,9.25
2022-12-22T21:42:24.028Z,8.95
2022-12-22T21:44:54.004Z,7.97
2022-12-22T21:47:21.276Z,6.45
2022-12-22T21:49:53.706Z,5.78
2022-12-22T21:52:28.539Z,5.75
2022-12-22T21:54:58.374Z,4.32
2022-12-22T21:57:27.926Z,5.13
2022-12-22T21:59:55.455Z,4.80
2022-12-22T22:02:25.558Z,5.22
2022-12-22T22:04:58.902Z,6.97
2022-12-22T22:07:28.346Z,8.18
2022-12-22T22:09:57.223Z,8.25
2022-12-22T22:12:28.195Z,7.40
2022-12-22T22:14:55.995Z,8.80
2022-12-22T22:17:23.266Z,7.75
2022-12-22T22:19:53.279Z,10.85
2022-12-22T22:22:22.632Z,10.32
2022-12-22T22:24:59.962Z,9.73
2022-12-22T22:27:28.655Z,10.73
2022-12-22T22:29:56.015Z,8.75
2022-12-22T22:32:23.320Z,8.05
2022-12-22T22:34:52.326Z,7.13
2022-12-22T22:37:19.631Z,6.50
2022-12-22T22:39:47.938Z,8.20
2022-12-22T22:42:15.242Z,8.13
2022-12-22T22:44:42.774Z,8.52
2022-12-22T22:47:09.973Z,11.25
2022-12-22T22:49:40.186Z,14.52
2022-12-22T22:52:07.222Z,17.05
2022-12-22T22:54:34.882Z,15.32
2022-12-22T22:57:02.138Z,14.95
2022-12-22T22:59:33.836Z,14.23
2022-12-22T23:02:01.146Z,11.20
2022-12-22T23:04:29.047Z,14.57
2022-12-22T23:06:59.076Z,14.88
2022-12-22T23:09:29.314Z,12.82
2022-12-22T23:12:14.848Z,12.77
2022-12-22T23:17:25.996Z,10.75
2022-12-22T23:19:57.433Z,10.60
2022-12-22T23:22:24.689Z,11.05
2022-12-22T23:24:52.213Z,13.30
2022-12-22T23:27:19.560Z,14.27
2022-12-22T23:29:46.946Z,13.93
2022-12-22T23:32:14.097Z,18.60
2022-12-22T23:34:41.766Z,19.95
2022-12-22T23:37:13.384Z,18.85
2022-12-22T23:39:48.549Z,21.25
2022-12-22T23:42:15.720Z,19.77
2022-12-22T23:44:45.311Z,20.23
2022-12-22T23:47:17.006Z,18.05
2022-12-22T23:49:44.421Z,22.17
2022-12-22T23:52:11.464Z,28.20
2022-12-22T23:54:41.204Z,23.48
2022-12-22T23:57:12.881Z,24.92
2022-12-22T23:59:42.799Z,22.45
